AirNav   Everest Fuels
 
 658 users online  

AZ34 Massey Farm Airport
Yucca, Arizona, USA

GOING TO YUCCA?


FAA INFORMATION EFFECTIVE 07 NOVEMBER 2019

Location

FAA Identifier: AZ34
Lat/Long: 34-41-29.1400N 114-05-51.8600W
34-41.485667N 114-05.864333W
34.6914278,-114.0977389
(estimated)
Elevation: 1630 ft. / 497 m (estimated)
From city: 16 miles S of YUCCA, AZ
Time zone: UTC -7 (year round; does not observe DST)
Zip code: 86404

Airport Operations

Airport use: Private use. Permission required prior to landing
Activation date: 01/2007
Control tower: no
ARTCC: LOS ANGELES CENTER
FSS: PRESCOTT FLIGHT SERVICE STATION
Attendance: UNATNDD
Segmented circle: no

Airport Communications

WX AWOS-3 at HII (15 nm SW): 119.025 (928-764-2309)

Nearby radio navigation aids

VOR radial/distance  VOR name  Freq  Var
EEDr089/19.1NEEDLES VORTAC115.2015E
IGMr178/35.1KINGMAN VOR/DME108.8015E

Airport Services

Runway Information

Runway 18/36

Dimensions: 1320 x 60 ft. / 402 x 18 m
Surface: dirt
RUNWAY 18  RUNWAY 36
Traffic pattern: leftleft

Airport Ownership and Management from official FAA records

Ownership: Privately-owned
Owner: RAE MASSEY
18370 S PIPELINE RD
YUCCA, AZ 86438
Phone 928-727-2818
Manager: CHRISTOPHER MASSEY
PO BOX 384
YUCCA, AZ 86438
Phone 928-727-2818

Additional Remarks

FOR CD CTC LOS ANGELES ARTCC AT 661-575-2079.

Instrument Procedures

There are no published instrument procedures at AZ34.

Some nearby airports with instrument procedures:

KHII - Lake Havasu City Airport (15 nm SW)
KEED - Needles Airport (26 nm W)
P20 - Avi Suquilla Airport (34 nm S)
KIGM - Kingman Airport (35 nm N)
KIFP - Laughlin/Bullhead International Airport (36 nm NW)
 
Loc | Ops | Rwys | IFR | FBO | Links
Com | Nav | Svcs | Stats | Notes
Aerial photo
No photo
 
Sectional chart

 
Airport distance calculator
Flying to Massey Farm Airport? Find the distance to fly.

From to AZ34

Sunrise and sunset
Times for 21-Nov-2019
 Local
(UTC-7)
 Zulu
(UTC)
Morning civil twilight06:5013:50
Sunrise07:1714:17
Sunset17:2700:27
Evening civil twilight17:5500:55

Current date and time
Zulu (UTC)  22-Nov-2019 05:05:34
Local (UTC-7)  21-Nov-2019 22:05:34
 
METAR
KHII 
15nm SW 
220455Z AUTO 32004KT 10SM CLR 13/08 A3005 RMK AO2
KEED 
26nm W 
220456Z AUTO 00000KT 10SM FEW047 OVC075 12/08 A3006 RMK AO2 SLP167 T01220083
KIFP 
27nm NW 
220455Z AUTO 00000KT 10SM BKN090 11/08 A3006 RMK AO2
TAF
KEED 
26nm W 
220424Z 2204/2224 01008KT P6SM FEW060 SCT080= TAF AMD KIFP 220424Z 2204/2224 VRB05KT P6SM SCT080 FM221200 01010KT P6SM FEW080 SCT250
KIFP 
27nm NW 
220424Z 2204/2224 VRB05KT P6SM SCT080 FM221200 01010KT P6SM FEW080 SCT250
NOTAMs
Click for the latest NOTAMs
NOTAMs are issued by the DoD/FAA and will open in a separate window not controlled by AirNav.

 

 
 

Would you like to see your business listed on this page?

 If your business provides an interesting product or service to pilots, flight crews, aircraft, or users of the Massey Farm Airport, you should consider listing it here.  To start the listing process, click on the button below
 
Add a business
 

Other Pages about Massey Farm Airport

Update a link
 
Copyright © AirNav, LLC. All rights reserved. Privacy Policy  Contact